PADL/DLG METAR and TAF weather

Enter ICAO airport designator
Station Type Date Time Source
PADL METAR 2021/04/14 19:56 UTC NOAA

PADL 141956Z 25009KT 10SM CLR 03/M01 A2985 RMK AO2 SLP112 T00331011


Station Type Date Time Source
PADL Decoded METAR 2021/04/14 19:56 UTC NOAA

Dillingham, Dillingham Airport, AK, United States (PADL) 59-03N 158-31W 29M
Apr 14, 2021 - 03:56 PM EDT / 2021.04.14 1956 UTC
Wind: from the WSW (250 degrees) at 10 MPH (9 KT):0
Visibility: 10 mile(s):0
Sky conditions: clear
Temperature: 37.9 F (3.3 C)
Dew Point: 30.0 F (-1.1 C)
Relative Humidity: 72%
Pressure (altimeter): 29.85 in. Hg (1010 hPa)
ob: PADL 141956Z 25009KT 10SM CLR 03/M01 A2985 RMK AO2 SLP112 T00331011
cycle: 20

Station Type Date Time Source
PADL TAF 2021/04/14 20:42 UTC NOAA

TAF
AMD PADL 141939Z 1420/1518 25009KT P6SM VCSH SCT050
FM150000 32007KT P6SM VCSH SCT050

Example: see airport list